sensor_id;sensor_type;location;lat;lon;timestamp;P1;durP1;ratioP1;P2;durP2;ratioP2
48733;SDS011;34530;52.084;5.146;2022-07-19T00:02:08;5.40;;;3.67;;
48733;SDS011;34530;52.084;5.146;2022-07-19T00:04:34;5.88;;;3.60;;
48733;SDS011;34530;52.084;5.146;2022-07-19T00:07:00;6.85;;;3.47;;
48733;SDS011;34530;52.084;5.146;2022-07-19T00:09:26;6.00;;;3.80;;
48733;SDS011;34530;52.084;5.146;2022-07-19T00:11:53;6.25;;;3.53;;
48733;SDS011;34530;52.084;5.146;2022-07-19T00:14:19;5.00;;;3.63;;
48733;SDS011;34530;52.084;5.146;2022-07-19T00:16:46;9.13;;;4.10;;
48733;SDS011;34530;52.084;5.146;2022-07-19T00:19:11;7.97;;;4.00;;
48733;SDS011;34530;52.084;5.146;2022-07-19T00:21:37;4.88;;;3.38;;
48733;SDS011;34530;52.084;5.146;2022-07-19T00:24:03;5.45;;;3.45;;
48733;SDS011;34530;52.084;5.146;2022-07-19T00:26:28;4.75;;;3.47;;
48733;SDS011;34530;52.084;5.146;2022-07-19T00:28:54;4.43;;;3.30;;
48733;SDS011;34530;52.084;5.146;2022-07-19T00:31:21;6.20;;;3.72;;
48733;SDS011;34530;52.084;5.146;2022-07-19T00:33:47;6.93;;;4.03;;
48733;SDS011;34530;52.084;5.146;2022-07-19T00:36:14;8.38;;;3.78;;
48733;SDS011;34530;52.084;5.146;2022-07-19T00:38:39;5.60;;;3.13;;
48733;SDS011;34530;52.084;5.146;2022-07-19T00:41:06;5.70;;;3.38;;
48733;SDS011;34530;52.084;5.146;2022-07-19T00:43:31;6.85;;;3.83;;
48733;SDS011;34530;52.084;5.146;2022-07-19T00:45:57;4.85;;;3.67;;
48733;SDS011;34530;52.084;5.146;2022-07-19T00:48:23;5.60;;;3.72;;
48733;SDS011;34530;52.084;5.146;2022-07-19T00:50:49;6.47;;;3.90;;
48733;SDS011;34530;52.084;5.146;2022-07-19T00:53:14;5.20;;;3.92;;
48733;SDS011;34530;52.084;5.146;2022-07-19T00:55:40;7.70;;;3.67;;
48733;SDS011;34530;52.084;5.146;2022-07-19T00:58:08;5.55;;;3.50;;
48733;SDS011;34530;52.084;5.146;2022-07-19T01:00:35;3.95;;;3.25;;
48733;SDS011;34530;52.084;5.146;2022-07-19T01:03:01;8.77;;;4.32;;
48733;SDS011;34530;52.084;5.146;2022-07-19T01:05:27;4.85;;;3.30;;
48733;SDS011;34530;52.084;5.146;2022-07-19T01:07:53;9.18;;;4.10;;
48733;SDS011;34530;52.084;5.146;2022-07-19T01:10:19;8.80;;;4.93;;
48733;SDS011;34530;52.084;5.146;2022-07-19T01:12:44;6.20;;;3.58;;
48733;SDS011;34530;52.084;5.146;2022-07-19T01:15:17;5.10;;;3.75;;
48733;SDS011;34530;52.084;5.146;2022-07-19T01:17:45;6.43;;;3.90;;
48733;SDS011;34530;52.084;5.146;2022-07-19T01:20:11;9.60;;;4.00;;
48733;SDS011;34530;52.084;5.146;2022-07-19T01:22:39;5.88;;;3.75;;
48733;SDS011;34530;52.084;5.146;2022-07-19T01:25:06;6.53;;;4.35;;
48733;SDS011;34530;52.084;5.146;2022-07-19T01:27:36;7.53;;;3.97;;
48733;SDS011;34530;52.084;5.146;2022-07-19T01:30:09;7.70;;;3.67;;
48733;SDS011;34530;52.084;5.146;2022-07-19T01:32:38;6.05;;;3.50;;
48733;SDS011;34530;52.084;5.146;2022-07-19T01:35:05;5.75;;;4.05;;
48733;SDS011;34530;52.084;5.146;2022-07-19T01:37:32;7.93;;;4.05;;
48733;SDS011;34530;52.084;5.146;2022-07-19T01:39:58;5.05;;;3.70;;
48733;SDS011;34530;52.084;5.146;2022-07-19T01:42:24;5.38;;;3.65;;
48733;SDS011;34530;52.084;5.146;2022-07-19T01:44:50;6.38;;;3.53;;
48733;SDS011;34530;52.084;5.146;2022-07-19T01:47:15;6.35;;;3.80;;
48733;SDS011;34530;52.084;5.146;2022-07-19T01:49:41;8.77;;;3.83;;
48733;SDS011;34530;52.084;5.146;2022-07-19T01:52:06;6.43;;;3.63;;
48733;SDS011;34530;52.084;5.146;2022-07-19T01:54:32;6.63;;;3.85;;
48733;SDS011;34530;52.084;5.146;2022-07-19T01:56:58;4.40;;;3.75;;
48733;SDS011;34530;52.084;5.146;2022-07-19T01:59:24;7.03;;;3.53;;
48733;SDS011;34530;52.084;5.146;2022-07-19T02:01:49;7.72;;;3.70;;
48733;SDS011;34530;52.084;5.146;2022-07-19T02:04:15;6.18;;;3.45;;
48733;SDS011;34530;52.084;5.146;2022-07-19T02:06:41;4.45;;;3.30;;
48733;SDS011;34530;52.084;5.146;2022-07-19T02:09:06;6.82;;;3.72;;
48733;SDS011;34530;52.084;5.146;2022-07-19T02:11:32;5.35;;;3.42;;
48733;SDS011;34530;52.084;5.146;2022-07-19T02:14:00;5.95;;;3.65;;
48733;SDS011;34530;52.084;5.146;2022-07-19T02:16:27;3.58;;;3.10;;
48733;SDS011;34530;52.084;5.146;2022-07-19T02:18:53;5.68;;;3.50;;
48733;SDS011;34530;52.084;5.146;2022-07-19T02:21:18;6.72;;;3.28;;
48733;SDS011;34530;52.084;5.146;2022-07-19T02:23:44;4.93;;;3.17;;
48733;SDS011;34530;52.084;5.146;2022-07-19T02:26:10;7.30;;;3.70;;
48733;SDS011;34530;52.084;5.146;2022-07-19T02:28:35;5.03;;;3.40;;
48733;SDS011;34530;52.084;5.146;2022-07-19T02:31:01;5.05;;;3.53;;
48733;SDS011;34530;52.084;5.146;2022-07-19T02:33:26;5.78;;;3.08;;
48733;SDS011;34530;52.084;5.146;2022-07-19T02:35:52;4.55;;;3.20;;
48733;SDS011;34530;52.084;5.146;2022-07-19T02:38:18;3.78;;;3.00;;
48733;SDS011;34530;52.084;5.146;2022-07-19T02:40:43;4.38;;;3.20;;
48733;SDS011;34530;52.084;5.146;2022-07-19T02:43:09;4.07;;;3.42;;
48733;SDS011;34530;52.084;5.146;2022-07-19T02:45:35;4.53;;;3.20;;
48733;SDS011;34530;52.084;5.146;2022-07-19T02:48:00;6.88;;;3.28;;
48733;SDS011;34530;52.084;5.146;2022-07-19T02:50:27;4.80;;;3.70;;
48733;SDS011;34530;52.084;5.146;2022-07-19T02:52:53;4.68;;;3.30;;
48733;SDS011;34530;52.084;5.146;2022-07-19T02:55:19;5.75;;;3.55;;
48733;SDS011;34530;52.084;5.146;2022-07-19T02:57:44;5.88;;;3.50;;
48733;SDS011;34530;52.084;5.146;2022-07-19T03:00:10;5.95;;;2.80;;
48733;SDS011;34530;52.084;5.146;2022-07-19T03:02:37;4.28;;;3.22;;
48733;SDS011;34530;52.084;5.146;2022-07-19T03:05:03;5.30;;;3.17;;
48733;SDS011;34530;52.084;5.146;2022-07-19T03:07:29;4.47;;;3.05;;
48733;SDS011;34530;52.084;5.146;2022-07-19T03:09:55;9.88;;;3.47;;
48733;SDS011;34530;52.084;5.146;2022-07-19T03:12:21;3.58;;;3.08;;
48733;SDS011;34530;52.084;5.146;2022-07-19T03:14:47;5.63;;;3.20;;
48733;SDS011;34530;52.084;5.146;2022-07-19T03:17:12;6.15;;;3.28;;
48733;SDS011;34530;52.084;5.146;2022-07-19T03:19:38;5.60;;;3.22;;
48733;SDS011;34530;52.084;5.146;2022-07-19T03:22:03;4.53;;;3.15;;
48733;SDS011;34530;52.084;5.146;2022-07-19T03:24:29;6.15;;;3.35;;
48733;SDS011;34530;52.084;5.146;2022-07-19T03:26:55;4.32;;;2.88;;
48733;SDS011;34530;52.084;5.146;2022-07-19T03:29:20;4.85;;;2.92;;
48733;SDS011;34530;52.084;5.146;2022-07-19T03:31:46;6.03;;;3.22;;
48733;SDS011;34530;52.084;5.146;2022-07-19T03:34:11;6.28;;;2.90;;
48733;SDS011;34530;52.084;5.146;2022-07-19T03:36:37;4.45;;;2.85;;
48733;SDS011;34530;52.084;5.146;2022-07-19T03:39:03;6.80;;;3.08;;
48733;SDS011;34530;52.084;5.146;2022-07-19T03:41:29;4.93;;;2.70;;
48733;SDS011;34530;52.084;5.146;2022-07-19T03:43:55;4.80;;;2.88;;
48733;SDS011;34530;52.084;5.146;2022-07-19T03:46:20;3.70;;;2.78;;
48733;SDS011;34530;52.084;5.146;2022-07-19T03:48:46;4.03;;;2.92;;
48733;SDS011;34530;52.084;5.146;2022-07-19T03:51:12;6.80;;;3.08;;
48733;SDS011;34530;52.084;5.146;2022-07-19T03:53:38;3.90;;;2.70;;
48733;SDS011;34530;52.084;5.146;2022-07-19T03:56:04;3.67;;;2.88;;
48733;SDS011;34530;52.084;5.146;2022-07-19T03:58:30;3.85;;;2.88;;
48733;SDS011;34530;52.084;5.146;2022-07-19T04:00:56;5.03;;;2.75;;
48733;SDS011;34530;52.084;5.146;2022-07-19T04:03:21;5.57;;;3.13;;
48733;SDS011;34530;52.084;5.146;2022-07-19T04:05:47;6.68;;;2.92;;
48733;SDS011;34530;52.084;5.146;2022-07-19T04:08:13;7.30;;;3.10;;
48733;SDS011;34530;52.084;5.146;2022-07-19T04:10:39;8.38;;;3.92;;
48733;SDS011;34530;52.084;5.146;2022-07-19T04:13:05;6.50;;;3.20;;
48733;SDS011;34530;52.084;5.146;2022-07-19T04:15:31;6.55;;;2.85;;
48733;SDS011;34530;52.084;5.146;2022-07-19T04:17:57;6.00;;;3.63;;
48733;SDS011;34530;52.084;5.146;2022-07-19T04:20:23;6.72;;;3.22;;
48733;SDS011;34530;52.084;5.146;2022-07-19T04:22:48;6.22;;;3.40;;
48733;SDS011;34530;52.084;5.146;2022-07-19T04:25:14;5.75;;;3.20;;
48733;SDS011;34530;52.084;5.146;2022-07-19T04:27:40;4.63;;;3.58;;
48733;SDS011;34530;52.084;5.146;2022-07-19T04:30:06;4.97;;;3.60;;
48733;SDS011;34530;52.084;5.146;2022-07-19T04:32:32;5.57;;;3.17;;
48733;SDS011;34530;52.084;5.146;2022-07-19T04:34:59;3.58;;;3.10;;
48733;SDS011;34530;52.084;5.146;2022-07-19T04:37:25;4.88;;;3.00;;
48733;SDS011;34530;52.084;5.146;2022-07-19T04:39:51;5.55;;;3.55;;
48733;SDS011;34530;52.084;5.146;2022-07-19T04:42:16;6.25;;;3.38;;
48733;SDS011;34530;52.084;5.146;2022-07-19T04:44:42;4.65;;;3.17;;
48733;SDS011;34530;52.084;5.146;2022-07-19T04:47:08;5.32;;;3.20;;
48733;SDS011;34530;52.084;5.146;2022-07-19T04:49:33;4.80;;;3.50;;
48733;SDS011;34530;52.084;5.146;2022-07-19T04:51:59;4.63;;;2.80;;
48733;SDS011;34530;52.084;5.146;2022-07-19T04:54:25;6.82;;;3.83;;
48733;SDS011;34530;52.084;5.146;2022-07-19T04:56:50;4.05;;;3.15;;
48733;SDS011;34530;52.084;5.146;2022-07-19T04:59:16;5.78;;;3.00;;
48733;SDS011;34530;52.084;5.146;2022-07-19T05:01:42;4.75;;;3.33;;
48733;SDS011;34530;52.084;5.146;2022-07-19T05:04:07;5.50;;;3.38;;
48733;SDS011;34530;52.084;5.146;2022-07-19T05:06:33;5.60;;;3.22;;
48733;SDS011;34530;52.084;5.146;2022-07-19T05:08:59;4.32;;;2.85;;
48733;SDS011;34530;52.084;5.146;2022-07-19T05:11:24;4.50;;;3.10;;
48733;SDS011;34530;52.084;5.146;2022-07-19T05:13:50;5.45;;;2.60;;
48733;SDS011;34530;52.084;5.146;2022-07-19T05:16:15;5.82;;;3.03;;
48733;SDS011;34530;52.084;5.146;2022-07-19T05:18:41;6.93;;;3.35;;
48733;SDS011;34530;52.084;5.146;2022-07-19T05:21:07;4.60;;;3.17;;
48733;SDS011;34530;52.084;5.146;2022-07-19T05:23:33;4.70;;;3.17;;
48733;SDS011;34530;52.084;5.146;2022-07-19T05:25:58;6.57;;;3.40;;
48733;SDS011;34530;52.084;5.146;2022-07-19T05:28:24;6.32;;;3.65;;
48733;SDS011;34530;52.084;5.146;2022-07-19T05:30:50;5.90;;;3.00;;
48733;SDS011;34530;52.084;5.146;2022-07-19T05:33:15;6.85;;;3.63;;
48733;SDS011;34530;52.084;5.146;2022-07-19T05:35:41;5.65;;;3.40;;
48733;SDS011;34530;52.084;5.146;2022-07-19T05:38:07;9.15;;;2.95;;
48733;SDS011;34530;52.084;5.146;2022-07-19T05:40:33;5.82;;;3.08;;
48733;SDS011;34530;52.084;5.146;2022-07-19T05:42:59;23.98;;;8.82;;
48733;SDS011;34530;52.084;5.146;2022-07-19T05:45:25;51.53;;;14.75;;
48733;SDS011;34530;52.084;5.146;2022-07-19T05:47:51;22.67;;;8.00;;
48733;SDS011;34530;52.084;5.146;2022-07-19T05:50:17;20.98;;;6.43;;
48733;SDS011;34530;52.084;5.146;2022-07-19T05:52:42;14.07;;;6.22;;
48733;SDS011;34530;52.084;5.146;2022-07-19T05:55:08;10.57;;;4.97;;
48733;SDS011;34530;52.084;5.146;2022-07-19T05:57:34;8.88;;;4.47;;
48733;SDS011;34530;52.084;5.146;2022-07-19T05:59:59;10.77;;;5.25;;
48733;SDS011;34530;52.084;5.146;2022-07-19T06:02:25;10.68;;;4.97;;
48733;SDS011;34530;52.084;5.146;2022-07-19T06:04:51;8.98;;;4.28;;
48733;SDS011;34530;52.084;5.146;2022-07-19T06:07:16;9.75;;;4.60;;
48733;SDS011;34530;52.084;5.146;2022-07-19T06:09:42;6.75;;;3.70;;
48733;SDS011;34530;52.084;5.146;2022-07-19T06:12:07;6.85;;;3.70;;
48733;SDS011;34530;52.084;5.146;2022-07-19T06:14:33;6.15;;;4.00;;
48733;SDS011;34530;52.084;5.146;2022-07-19T06:16:59;11.85;;;4.25;;
48733;SDS011;34530;52.084;5.146;2022-07-19T06:19:24;7.75;;;3.10;;
48733;SDS011;34530;52.084;5.146;2022-07-19T06:21:51;6.13;;;3.65;;
48733;SDS011;34530;52.084;5.146;2022-07-19T06:24:18;5.25;;;3.08;;
48733;SDS011;34530;52.084;5.146;2022-07-19T06:26:43;8.82;;;3.38;;
48733;SDS011;34530;52.084;5.146;2022-07-19T06:29:09;8.18;;;3.58;;
48733;SDS011;34530;52.084;5.146;2022-07-19T06:31:35;11.13;;;3.75;;
48733;SDS011;34530;52.084;5.146;2022-07-19T06:34:00;4.25;;;2.88;;
48733;SDS011;34530;52.084;5.146;2022-07-19T06:36:26;11.18;;;3.00;;
48733;SDS011;34530;52.084;5.146;2022-07-19T06:38:52;7.20;;;2.92;;
48733;SDS011;34530;52.084;5.146;2022-07-19T06:41:18;6.97;;;3.40;;
48733;SDS011;34530;52.084;5.146;2022-07-19T06:43:43;8.73;;;3.67;;
48733;SDS011;34530;52.084;5.146;2022-07-19T06:46:09;7.55;;;3.40;;
48733;SDS011;34530;52.084;5.146;2022-07-19T06:48:35;11.48;;;3.28;;
48733;SDS011;34530;52.084;5.146;2022-07-19T06:51:01;6.72;;;3.42;;
48733;SDS011;34530;52.084;5.146;2022-07-19T06:53:27;7.50;;;3.75;;
48733;SDS011;34530;52.084;5.146;2022-07-19T06:55:53;8.43;;;3.45;;
48733;SDS011;34530;52.084;5.146;2022-07-19T06:58:18;8.63;;;3.28;;
48733;SDS011;34530;52.084;5.146;2022-07-19T07:00:44;6.97;;;3.05;;
48733;SDS011;34530;52.084;5.146;2022-07-19T07:03:10;7.70;;;2.90;;
48733;SDS011;34530;52.084;5.146;2022-07-19T07:05:36;6.57;;;3.10;;
48733;SDS011;34530;52.084;5.146;2022-07-19T07:08:02;6.90;;;3.00;;
48733;SDS011;34530;52.084;5.146;2022-07-19T07:10:28;9.48;;;3.13;;
48733;SDS011;34530;52.084;5.146;2022-07-19T07:12:54;10.57;;;3.05;;
48733;SDS011;34530;52.084;5.146;2022-07-19T07:15:19;5.40;;;2.92;;
48733;SDS011;34530;52.084;5.146;2022-07-19T07:17:45;4.72;;;2.80;;
48733;SDS011;34530;52.084;5.146;2022-07-19T07:20:11;6.05;;;3.17;;
48733;SDS011;34530;52.084;5.146;2022-07-19T07:22:37;10.80;;;3.05;;
48733;SDS011;34530;52.084;5.146;2022-07-19T07:25:03;6.82;;;3.03;;
48733;SDS011;34530;52.084;5.146;2022-07-19T07:27:29;4.80;;;2.72;;
48733;SDS011;34530;52.084;5.146;2022-07-19T07:29:55;8.55;;;2.65;;
48733;SDS011;34530;52.084;5.146;2022-07-19T07:32:21;5.18;;;2.58;;
48733;SDS011;34530;52.084;5.146;2022-07-19T07:34:47;5.30;;;2.70;;
48733;SDS011;34530;52.084;5.146;2022-07-19T07:37:12;10.43;;;3.10;;
48733;SDS011;34530;52.084;5.146;2022-07-19T07:39:40;6.82;;;3.08;;
48733;SDS011;34530;52.084;5.146;2022-07-19T07:42:06;6.95;;;3.00;;
48733;SDS011;34530;52.084;5.146;2022-07-19T07:44:32;4.05;;;2.53;;
48733;SDS011;34530;52.084;5.146;2022-07-19T07:46:58;6.75;;;3.22;;
48733;SDS011;34530;52.084;5.146;2022-07-19T07:49:23;7.07;;;3.00;;
48733;SDS011;34530;52.084;5.146;2022-07-19T07:51:49;5.00;;;2.67;;
48733;SDS011;34530;52.084;5.146;2022-07-19T07:54:15;6.43;;;3.10;;
48733;SDS011;34530;52.084;5.146;2022-07-19T07:56:41;4.22;;;2.42;;
48733;SDS011;34530;52.084;5.146;2022-07-19T07:59:07;9.50;;;2.70;;
48733;SDS011;34530;52.084;5.146;2022-07-19T08:01:32;9.48;;;2.95;;
48733;SDS011;34530;52.084;5.146;2022-07-19T08:03:59;9.38;;;3.20;;
48733;SDS011;34530;52.084;5.146;2022-07-19T08:06:25;5.15;;;2.75;;
48733;SDS011;34530;52.084;5.146;2022-07-19T08:08:50;4.93;;;3.03;;
48733;SDS011;34530;52.084;5.146;2022-07-19T08:11:16;7.63;;;2.72;;
48733;SDS011;34530;52.084;5.146;2022-07-19T08:13:42;7.35;;;3.30;;
48733;SDS011;34530;52.084;5.146;2022-07-19T08:16:08;8.02;;;2.92;;
48733;SDS011;34530;52.084;5.146;2022-07-19T08:18:33;10.10;;;2.97;;
48733;SDS011;34530;52.084;5.146;2022-07-19T08:20:59;7.15;;;2.88;;
48733;SDS011;34530;52.084;5.146;2022-07-19T08:23:24;10.30;;;3.35;;
48733;SDS011;34530;52.084;5.146;2022-07-19T08:25:50;9.63;;;3.00;;
48733;SDS011;34530;52.084;5.146;2022-07-19T08:28:16;8.80;;;3.70;;
48733;SDS011;34530;52.084;5.146;2022-07-19T08:30:41;5.13;;;2.80;;
48733;SDS011;34530;52.084;5.146;2022-07-19T08:33:07;8.35;;;3.38;;
48733;SDS011;34530;52.084;5.146;2022-07-19T08:35:35;6.07;;;3.08;;
48733;SDS011;34530;52.084;5.146;2022-07-19T08:38:00;7.93;;;3.25;;
48733;SDS011;34530;52.084;5.146;2022-07-19T08:40:26;9.57;;;3.50;;
48733;SDS011;34530;52.084;5.146;2022-07-19T08:42:53;7.20;;;2.97;;
48733;SDS011;34530;52.084;5.146;2022-07-19T08:45:22;11.35;;;3.45;;
48733;SDS011;34530;52.084;5.146;2022-07-19T08:47:48;8.25;;;3.60;;
48733;SDS011;34530;52.084;5.146;2022-07-19T08:50:14;7.70;;;3.17;;
48733;SDS011;34530;52.084;5.146;2022-07-19T08:52:40;8.68;;;3.15;;
48733;SDS011;34530;52.084;5.146;2022-07-19T08:55:07;13.10;;;3.28;;
48733;SDS011;34530;52.084;5.146;2022-07-19T08:57:34;8.82;;;3.10;;
48733;SDS011;34530;52.084;5.146;2022-07-19T09:00:18;9.55;;;2.88;;
48733;SDS011;34530;52.084;5.146;2022-07-19T09:02:54;5.80;;;2.72;;
48733;SDS011;34530;52.084;5.146;2022-07-19T09:05:22;8.82;;;3.22;;
48733;SDS011;34530;52.084;5.146;2022-07-19T09:10:40;10.45;;;3.35;;
48733;SDS011;34530;52.084;5.146;2022-07-19T09:13:33;12.35;;;4.10;;
48733;SDS011;34530;52.084;5.146;2022-07-19T09:15:59;8.27;;;3.28;;
48733;SDS011;34530;52.084;5.146;2022-07-19T09:20:58;8.45;;;3.55;;
48733;SDS011;34530;52.084;5.146;2022-07-19T09:23:26;12.55;;;3.10;;
48733;SDS011;34530;52.084;5.146;2022-07-19T09:25:53;8.52;;;3.63;;
48733;SDS011;34530;52.084;5.146;2022-07-19T09:28:21;8.85;;;3.30;;
48733;SDS011;34530;52.084;5.146;2022-07-19T09:30:58;11.68;;;3.75;;
48733;SDS011;34530;52.084;5.146;2022-07-19T09:35:56;12.18;;;3.70;;
48733;SDS011;34530;52.084;5.146;2022-07-19T09:38:31;11.77;;;3.53;;
48733;SDS011;34530;52.084;5.146;2022-07-19T09:49:01;4.78;;;2.35;;
48733;SDS011;34530;52.084;5.146;2022-07-19T09:51:29;10.27;;;3.55;;
48733;SDS011;34530;52.084;5.146;2022-07-19T09:53:57;7.75;;;2.85;;
48733;SDS011;34530;52.084;5.146;2022-07-19T09:56:23;7.75;;;3.25;;
48733;SDS011;34530;52.084;5.146;2022-07-19T09:58:50;5.63;;;3.05;;
48733;SDS011;34530;52.084;5.146;2022-07-19T10:01:17;7.40;;;2.83;;
48733;SDS011;34530;52.084;5.146;2022-07-19T10:03:42;6.15;;;2.70;;
48733;SDS011;34530;52.084;5.146;2022-07-19T10:06:09;12.18;;;3.45;;
48733;SDS011;34530;52.084;5.146;2022-07-19T10:08:35;9.35;;;2.83;;
48733;SDS011;34530;52.084;5.146;2022-07-19T10:11:00;8.65;;;2.60;;
48733;SDS011;34530;52.084;5.146;2022-07-19T10:13:26;9.05;;;3.05;;
48733;SDS011;34530;52.084;5.146;2022-07-19T10:15:52;4.50;;;2.78;;
48733;SDS011;34530;52.084;5.146;2022-07-19T10:18:20;8.98;;;2.90;;
48733;SDS011;34530;52.084;5.146;2022-07-19T10:20:50;8.75;;;2.97;;
48733;SDS011;34530;52.084;5.146;2022-07-19T10:23:22;6.78;;;2.72;;
48733;SDS011;34530;52.084;5.146;2022-07-19T10:25:51;7.18;;;2.85;;
48733;SDS011;34530;52.084;5.146;2022-07-19T10:30:59;9.70;;;2.70;;
48733;SDS011;34530;52.084;5.146;2022-07-19T10:33:33;11.63;;;2.92;;
48733;SDS011;34530;52.084;5.146;2022-07-19T10:44:35;5.97;;;2.70;;
48733;SDS011;34530;52.084;5.146;2022-07-19T10:47:20;5.18;;;2.53;;
48733;SDS011;34530;52.084;5.146;2022-07-19T10:49:47;11.43;;;2.47;;
48733;SDS011;34530;52.084;5.146;2022-07-19T11:00:30;3.92;;;2.40;;
48733;SDS011;34530;52.084;5.146;2022-07-19T11:08:13;5.57;;;2.30;;
48733;SDS011;34530;52.084;5.146;2022-07-19T11:10:40;6.82;;;2.45;;
48733;SDS011;34530;52.084;5.146;2022-07-19T11:13:05;3.35;;;2.30;;
48733;SDS011;34530;52.084;5.146;2022-07-19T11:15:31;4.20;;;2.38;;
48733;SDS011;34530;52.084;5.146;2022-07-19T11:18:06;10.77;;;2.50;;
48733;SDS011;34530;52.084;5.146;2022-07-19T11:20:33;4.90;;;2.28;;
48733;SDS011;34530;52.084;5.146;2022-07-19T11:23:02;8.80;;;2.40;;
48733;SDS011;34530;52.084;5.146;2022-07-19T11:25:32;4.13;;;2.45;;
48733;SDS011;34530;52.084;5.146;2022-07-19T11:28:01;4.15;;;2.55;;
48733;SDS011;34530;52.084;5.146;2022-07-19T11:30:28;5.22;;;2.03;;
48733;SDS011;34530;52.084;5.146;2022-07-19T11:32:57;4.90;;;2.20;;
48733;SDS011;34530;52.084;5.146;2022-07-19T11:35:24;5.95;;;2.63;;
48733;SDS011;34530;52.084;5.146;2022-07-19T11:37:52;7.18;;;2.53;;
48733;SDS011;34530;52.084;5.146;2022-07-19T11:40:19;8.15;;;2.67;;
48733;SDS011;34530;52.084;5.146;2022-07-19T11:42:46;10.15;;;2.95;;
48733;SDS011;34530;52.084;5.146;2022-07-19T11:45:17;5.20;;;3.25;;
48733;SDS011;34530;52.084;5.146;2022-07-19T11:47:54;5.22;;;2.30;;
48733;SDS011;34530;52.084;5.146;2022-07-19T11:50:22;4.25;;;2.08;;
48733;SDS011;34530;52.084;5.146;2022-07-19T11:52:56;4.80;;;2.65;;
48733;SDS011;34530;52.084;5.146;2022-07-19T11:55:36;4.88;;;2.50;;
48733;SDS011;34530;52.084;5.146;2022-07-19T11:58:06;7.05;;;2.58;;
48733;SDS011;34530;52.084;5.146;2022-07-19T12:00:33;6.38;;;2.72;;
48733;SDS011;34530;52.084;5.146;2022-07-19T12:03:00;3.17;;;2.30;;
48733;SDS011;34530;52.084;5.146;2022-07-19T12:05:31;4.97;;;2.58;;
48733;SDS011;34530;52.084;5.146;2022-07-19T12:07:59;6.85;;;2.72;;
48733;SDS011;34530;52.084;5.146;2022-07-19T12:11:00;5.45;;;2.25;;
48733;SDS011;34530;52.084;5.146;2022-07-19T12:13:31;4.95;;;2.25;;
48733;SDS011;34530;52.084;5.146;2022-07-19T12:15:59;7.47;;;2.70;;
48733;SDS011;34530;52.084;5.146;2022-07-19T12:21:20;6.82;;;2.08;;
48733;SDS011;34530;52.084;5.146;2022-07-19T12:26:37;4.50;;;2.33;;
48733;SDS011;34530;52.084;5.146;2022-07-19T12:29:21;6.68;;;2.47;;
48733;SDS011;34530;52.084;5.146;2022-07-19T12:31:59;3.83;;;2.33;;
48733;SDS011;34530;52.084;5.146;2022-07-19T12:34:29;4.22;;;2.45;;
48733;SDS011;34530;52.084;5.146;2022-07-19T12:37:27;5.88;;;2.63;;
48733;SDS011;34530;52.084;5.146;2022-07-19T12:42:36;13.25;;;3.08;;
48733;SDS011;34530;52.084;5.146;2022-07-19T12:45:04;5.78;;;2.58;;
48733;SDS011;34530;52.084;5.146;2022-07-19T12:47:31;7.78;;;2.40;;
48733;SDS011;34530;52.084;5.146;2022-07-19T12:49:57;10.65;;;2.75;;
48733;SDS011;34530;52.084;5.146;2022-07-19T12:52:23;5.28;;;2.53;;
48733;SDS011;34530;52.084;5.146;2022-07-19T12:54:48;8.15;;;2.20;;
48733;SDS011;34530;52.084;5.146;2022-07-19T12:57:14;6.55;;;2.55;;
48733;SDS011;34530;52.084;5.146;2022-07-19T12:59:40;3.88;;;2.15;;
48733;SDS011;34530;52.084;5.146;2022-07-19T13:02:06;7.28;;;2.40;;
48733;SDS011;34530;52.084;5.146;2022-07-19T13:04:33;6.72;;;2.20;;
48733;SDS011;34530;52.084;5.146;2022-07-19T13:06:59;9.15;;;2.72;;
48733;SDS011;34530;52.084;5.146;2022-07-19T13:09:25;6.53;;;2.20;;
48733;SDS011;34530;52.084;5.146;2022-07-19T13:11:51;3.70;;;1.70;;
48733;SDS011;34530;52.084;5.146;2022-07-19T13:14:16;3.95;;;2.45;;
48733;SDS011;34530;52.084;5.146;2022-07-19T13:16:42;5.18;;;2.63;;
48733;SDS011;34530;52.084;5.146;2022-07-19T13:19:07;7.32;;;2.00;;
48733;SDS011;34530;52.084;5.146;2022-07-19T13:21:33;4.22;;;2.13;;
48733;SDS011;34530;52.084;5.146;2022-07-19T13:23:59;6.00;;;2.20;;
48733;SDS011;34530;52.084;5.146;2022-07-19T13:26:25;8.68;;;2.30;;
48733;SDS011;34530;52.084;5.146;2022-07-19T13:28:51;4.68;;;2.28;;
48733;SDS011;34530;52.084;5.146;2022-07-19T13:31:16;8.25;;;2.53;;
48733;SDS011;34530;52.084;5.146;2022-07-19T13:33:42;3.92;;;2.28;;
48733;SDS011;34530;52.084;5.146;2022-07-19T13:36:08;4.70;;;2.58;;
48733;SDS011;34530;52.084;5.146;2022-07-19T13:38:34;6.60;;;2.28;;
48733;SDS011;34530;52.084;5.146;2022-07-19T13:41:03;5.70;;;2.22;;
48733;SDS011;34530;52.084;5.146;2022-07-19T13:43:30;5.97;;;1.95;;
48733;SDS011;34530;52.084;5.146;2022-07-19T13:45:55;6.82;;;2.30;;
48733;SDS011;34530;52.084;5.146;2022-07-19T13:48:21;4.35;;;2.22;;
48733;SDS011;34530;52.084;5.146;2022-07-19T13:50:46;6.85;;;2.15;;
48733;SDS011;34530;52.084;5.146;2022-07-19T13:53:12;7.78;;;2.08;;
48733;SDS011;34530;52.084;5.146;2022-07-19T13:55:38;3.78;;;2.10;;
48733;SDS011;34530;52.084;5.146;2022-07-19T13:58:03;5.40;;;2.30;;
48733;SDS011;34530;52.084;5.146;2022-07-19T14:00:29;6.82;;;2.15;;
48733;SDS011;34530;52.084;5.146;2022-07-19T14:02:55;7.82;;;2.15;;
48733;SDS011;34530;52.084;5.146;2022-07-19T14:05:21;5.65;;;2.40;;
48733;SDS011;34530;52.084;5.146;2022-07-19T14:07:46;8.93;;;2.20;;
48733;SDS011;34530;52.084;5.146;2022-07-19T14:10:12;4.45;;;2.80;;
48733;SDS011;34530;52.084;5.146;2022-07-19T14:12:38;10.48;;;2.97;;
48733;SDS011;34530;52.084;5.146;2022-07-19T14:15:03;6.88;;;2.80;;
48733;SDS011;34530;52.084;5.146;2022-07-19T14:17:30;5.85;;;2.75;;
48733;SDS011;34530;52.084;5.146;2022-07-19T14:19:55;9.15;;;2.55;;
48733;SDS011;34530;52.084;5.146;2022-07-19T14:22:21;6.38;;;2.33;;
48733;SDS011;34530;52.084;5.146;2022-07-19T14:24:47;7.75;;;3.08;;
48733;SDS011;34530;52.084;5.146;2022-07-19T14:27:12;4.97;;;2.35;;
48733;SDS011;34530;52.084;5.146;2022-07-19T14:29:38;6.10;;;2.30;;
48733;SDS011;34530;52.084;5.146;2022-07-19T14:32:03;6.78;;;2.20;;
48733;SDS011;34530;52.084;5.146;2022-07-19T14:34:30;8.45;;;3.28;;
48733;SDS011;34530;52.084;5.146;2022-07-19T14:36:56;4.53;;;2.55;;
48733;SDS011;34530;52.084;5.146;2022-07-19T14:39:21;5.97;;;2.40;;
48733;SDS011;34530;52.084;5.146;2022-07-19T14:41:47;4.57;;;2.50;;
48733;SDS011;34530;52.084;5.146;2022-07-19T14:44:13;4.55;;;2.42;;
48733;SDS011;34530;52.084;5.146;2022-07-19T14:46:38;4.35;;;2.35;;
48733;SDS011;34530;52.084;5.146;2022-07-19T14:49:04;4.63;;;2.42;;
48733;SDS011;34530;52.084;5.146;2022-07-19T14:51:29;9.30;;;2.75;;
48733;SDS011;34530;52.084;5.146;2022-07-19T14:53:55;5.07;;;2.45;;
48733;SDS011;34530;52.084;5.146;2022-07-19T14:56:21;5.60;;;2.30;;
48733;SDS011;34530;52.084;5.146;2022-07-19T14:58:46;14.10;;;2.33;;
48733;SDS011;34530;52.084;5.146;2022-07-19T15:01:12;4.88;;;2.45;;
48733;SDS011;34530;52.084;5.146;2022-07-19T15:03:38;8.13;;;2.70;;
48733;SDS011;34530;52.084;5.146;2022-07-19T15:06:03;6.55;;;2.50;;
48733;SDS011;34530;52.084;5.146;2022-07-19T15:08:29;6.07;;;2.22;;
48733;SDS011;34530;52.084;5.146;2022-07-19T15:10:54;5.10;;;2.38;;
48733;SDS011;34530;52.084;5.146;2022-07-19T15:13:20;5.03;;;2.78;;
48733;SDS011;34530;52.084;5.146;2022-07-19T15:15:46;7.80;;;2.58;;
48733;SDS011;34530;52.084;5.146;2022-07-19T15:18:11;8.23;;;2.97;;
48733;SDS011;34530;52.084;5.146;2022-07-19T15:20:37;6.28;;;2.78;;
48733;SDS011;34530;52.084;5.146;2022-07-19T15:23:03;3.70;;;2.28;;
48733;SDS011;34530;52.084;5.146;2022-07-19T15:25:29;9.77;;;2.58;;
48733;SDS011;34530;52.084;5.146;2022-07-19T15:27:55;4.88;;;2.47;;
48733;SDS011;34530;52.084;5.146;2022-07-19T15:30:22;5.05;;;2.50;;
48733;SDS011;34530;52.084;5.146;2022-07-19T15:32:48;6.40;;;3.00;;